createdAt,value
2023-04-09T00:01:17.316Z,4.35
2023-04-09T00:04:20.067Z,4.34
2023-04-09T00:07:22.492Z,4.34
2023-04-09T00:10:25.354Z,4.32
2023-04-09T00:13:38.664Z,4.33
2023-04-09T00:16:42.529Z,4.31
2023-04-09T00:19:44.960Z,4.30
2023-04-09T00:22:50.433Z,4.32
2023-04-09T00:25:52.838Z,4.33
2023-04-09T00:28:55.646Z,4.33
2023-04-09T00:31:59.656Z,4.31
2023-04-09T00:35:02.318Z,4.34
2023-04-09T00:38:04.844Z,4.38
2023-04-09T00:41:08.275Z,4.37
2023-04-09T00:44:10.761Z,4.40
2023-04-09T00:47:13.510Z,4.41
2023-04-09T00:50:17.657Z,4.41
2023-04-09T00:53:20.844Z,4.39
2023-04-09T00:56:24.635Z,4.42
2023-04-09T00:59:27.439Z,4.42
2023-04-09T01:02:31.150Z,4.41
2023-04-09T01:06:00.331Z,4.40
2023-04-09T01:09:20.736Z,4.39
2023-04-09T01:12:36.897Z,4.37
2023-04-09T01:15:47.269Z,4.34
2023-04-09T01:19:10.291Z,4.30
2023-04-09T01:22:26.472Z,4.24
2023-04-09T01:25:38.330Z,4.14
2023-04-09T01:28:45.074Z,4.06
2023-04-09T01:31:49.796Z,3.97
2023-04-09T01:34:53.615Z,3.84
2023-04-09T01:38:00.027Z,3.70
2023-04-09T01:41:04.208Z,3.59
2023-04-09T01:44:09.641Z,3.45
2023-04-09T01:47:12.852Z,3.33
2023-04-09T01:50:15.707Z,3.21
2023-04-09T01:53:18.360Z,3.09
2023-04-09T01:56:21.451Z,3.06
2023-04-09T01:59:23.972Z,3.05
2023-04-09T02:02:39.565Z,3.10
2023-04-09T02:05:46.544Z,3.08
2023-04-09T02:08:52.769Z,3.10
2023-04-09T02:11:59.071Z,3.13
2023-04-09T02:15:03.559Z,3.18
2023-04-09T02:18:24.012Z,3.16
2023-04-09T02:21:28.632Z,3.15
2023-04-09T02:24:31.277Z,3.07
2023-04-09T02:27:33.652Z,2.95
2023-04-09T02:30:36.312Z,2.91
2023-04-09T02:33:38.982Z,2.87
2023-04-09T02:36:41.852Z,2.88
2023-04-09T02:39:47.324Z,2.91
2023-04-09T02:42:51.915Z,2.96
2023-04-09T02:45:54.396Z,2.94
2023-04-09T02:48:57.184Z,2.92
2023-04-09T02:52:02.546Z,2.83
2023-04-09T02:55:05.690Z,2.75
2023-04-09T02:58:16.825Z,2.65
2023-04-09T03:01:20.397Z,2.62
2023-04-09T03:04:22.836Z,2.57
2023-04-09T03:07:25.676Z,2.59
2023-04-09T03:10:28.127Z,2.61
2023-04-09T03:13:30.773Z,2.62
2023-04-09T03:16:33.695Z,2.63
2023-04-09T03:19:36.399Z,2.57
2023-04-09T03:22:39.919Z,2.54
2023-04-09T03:25:45.348Z,2.50
2023-04-09T03:28:47.991Z,2.43
2023-04-09T03:31:51.565Z,2.36
2023-04-09T03:34:54.071Z,2.31
2023-04-09T03:37:57.863Z,2.24
2023-04-09T03:41:00.203Z,2.15
2023-04-09T03:44:04.788Z,2.06
2023-04-09T03:47:08.070Z,1.99
2023-04-09T03:50:11.482Z,1.85
2023-04-09T03:53:15.553Z,1.79
2023-04-09T03:56:19.418Z,1.72
2023-04-09T03:59:23.178Z,1.63
2023-04-09T04:02:27.291Z,1.57
2023-04-09T04:05:30.951Z,1.60
2023-04-09T04:08:34.033Z,1.59
2023-04-09T04:11:42.087Z,1.58
2023-04-09T04:14:44.766Z,1.60
2023-04-09T04:17:50.876Z,1.71
2023-04-09T04:20:56.026Z,1.86
2023-04-09T04:23:58.907Z,2.02
2023-04-09T04:27:02.062Z,2.16
2023-04-09T04:30:11.731Z,2.32
2023-04-09T04:33:15.111Z,2.47
2023-04-09T04:36:21.295Z,2.66
2023-04-09T04:39:24.095Z,2.84
2023-04-09T04:42:27.627Z,3.02
2023-04-09T04:45:30.359Z,3.19
2023-04-09T04:48:33.261Z,3.40
2023-04-09T04:51:35.714Z,3.61
2023-04-09T04:54:38.658Z,3.80
2023-04-09T04:57:41.295Z,3.96
2023-04-09T05:00:46.924Z,4.12
2023-04-09T05:03:49.690Z,4.29
2023-04-09T05:06:58.039Z,4.45
2023-04-09T05:10:00.870Z,4.62
2023-04-09T05:13:07.818Z,4.78
2023-04-09T05:16:17.704Z,4.93
2023-04-09T05:19:21.002Z,5.09
2023-04-09T05:22:24.345Z,5.23
2023-04-09T05:25:27.471Z,5.41
2023-04-09T05:28:30.414Z,5.57
2023-04-09T05:31:37.210Z,5.80
2023-04-09T05:34:39.939Z,6.01
2023-04-09T05:37:42.775Z,6.14
2023-04-09T05:40:45.895Z,6.25
2023-04-09T05:43:48.691Z,6.38
2023-04-09T05:46:51.480Z,6.50
2023-04-09T05:49:54.814Z,6.58
2023-04-09T05:52:57.670Z,6.70
2023-04-09T05:56:02.262Z,6.89
2023-04-09T05:59:15.624Z,7.15
2023-04-09T06:02:18.553Z,7.39
2023-04-09T06:05:23.654Z,7.54
2023-04-09T06:08:26.888Z,7.75
2023-04-09T06:11:30.679Z,8.17
2023-04-09T06:14:33.293Z,8.51
2023-04-09T06:17:36.071Z,8.57
2023-04-09T06:20:38.468Z,8.89
2023-04-09T06:23:42.441Z,9.36
2023-04-09T06:26:44.841Z,9.71
2023-04-09T06:29:50.361Z,10.07
2023-04-09T06:32:54.902Z,10.26
2023-04-09T06:36:03.405Z,10.60
2023-04-09T06:39:08.581Z,10.97
2023-04-09T06:42:11.313Z,11.25
2023-04-09T06:45:14.133Z,11.54
2023-04-09T06:48:16.848Z,11.47
2023-04-09T06:51:19.394Z,11.75
2023-04-09T06:54:22.215Z,12.28
2023-04-09T06:57:24.680Z,11.51
2023-04-09T07:00:27.475Z,11.87
2023-04-09T07:03:30.345Z,11.57
2023-04-09T07:06:33.110Z,11.58
2023-04-09T07:09:35.497Z,11.18
2023-04-09T07:12:38.301Z,12.16
2023-04-09T07:15:42.478Z,12.40
2023-04-09T07:18:45.598Z,12.13
2023-04-09T07:21:48.030Z,12.73
2023-04-09T07:24:56.719Z,14.51
2023-04-09T07:28:02.170Z,14.92
2023-04-09T07:31:04.858Z,16.04
2023-04-09T07:34:07.252Z,17.74
2023-04-09T07:37:12.355Z,18.11
2023-04-09T07:40:17.598Z,16.65
2023-04-09T07:43:22.626Z,16.76
2023-04-09T07:46:27.352Z,16.41
2023-04-09T07:49:30.387Z,17.57
2023-04-09T07:52:32.944Z,16.98
2023-04-09T07:55:39.508Z,17.16
2023-04-09T07:58:41.818Z,18.69
2023-04-09T08:01:44.605Z,16.89
2023-04-09T08:04:47.403Z,18.42
2023-04-09T08:07:52.894Z,18.81
2023-04-09T08:10:55.649Z,15.99
2023-04-09T08:13:58.260Z,15.82
2023-04-09T08:17:01.625Z,14.59
2023-04-09T08:20:05.225Z,16.29
2023-04-09T08:23:08.381Z,17.33
2023-04-09T08:26:11.101Z,19.73
2023-04-09T08:29:16.220Z,20.82
2023-04-09T08:32:18.661Z,21.04
2023-04-09T08:35:21.571Z,19.59
2023-04-09T08:38:24.012Z,19.13
2023-04-09T08:41:29.390Z,17.61
2023-04-09T08:44:33.608Z,16.68
2023-04-09T08:47:37.107Z,16.18
2023-04-09T08:50:40.096Z,15.26
2023-04-09T08:54:00.704Z,17.24
2023-04-09T08:57:08.791Z,16.68
2023-04-09T09:00:12.385Z,16.35
2023-04-09T09:03:14.867Z,15.19
2023-04-09T09:06:22.452Z,14.81
2023-04-09T09:09:26.839Z,15.00
2023-04-09T09:12:40.969Z,14.98
2023-04-09T09:15:43.592Z,15.10
2023-04-09T09:18:46.302Z,14.12
2023-04-09T09:21:59.628Z,15.44
2023-04-09T09:25:02.344Z,16.72
2023-04-09T09:28:10.322Z,16.53
2023-04-09T09:31:13.430Z,16.25
2023-04-09T09:34:17.466Z,15.02
2023-04-09T09:37:28.158Z,15.71
2023-04-09T09:40:30.745Z,15.95
2023-04-09T09:43:41.441Z,18.34
2023-04-09T09:46:43.809Z,19.36
2023-04-09T09:49:51.490Z,17.53
2023-04-09T09:53:00.279Z,16.41
2023-04-09T09:56:05.413Z,15.65
2023-04-09T09:59:23.931Z,15.88
2023-04-09T10:02:31.364Z,15.80
2023-04-09T10:05:36.754Z,15.91
2023-04-09T10:08:41.780Z,15.53
2023-04-09T10:11:48.074Z,16.23
2023-04-09T10:14:53.244Z,16.60
2023-04-09T10:17:58.418Z,17.50
2023-04-09T10:21:14.960Z,19.95
2023-04-09T10:24:18.009Z,22.59
2023-04-09T10:27:21.001Z,22.30
2023-04-09T10:30:36.024Z,20.51
2023-04-09T10:33:39.564Z,19.52
2023-04-09T10:36:49.746Z,17.99
2023-04-09T10:39:53.124Z,18.13
2023-04-09T10:42:57.667Z,18.89
2023-04-09T10:46:05.530Z,17.84
2023-04-09T10:49:19.422Z,16.86
2023-04-09T10:52:30.248Z,16.55
2023-04-09T10:55:40.926Z,15.93
2023-04-09T10:58:43.299Z,15.84
2023-04-09T11:01:53.975Z,17.64
2023-04-09T11:05:30.742Z,18.16
2023-04-09T11:08:34.317Z,18.07
2023-04-09T11:11:37.027Z,17.08
2023-04-09T11:14:39.705Z,16.94
2023-04-09T11:17:43.194Z,16.63
2023-04-09T11:20:46.449Z,16.61
2023-04-09T11:23:52.957Z,16.40
2023-04-09T11:26:56.854Z,16.55
2023-04-09T11:29:59.283Z,16.69
2023-04-09T11:33:02.500Z,17.06
2023-04-09T11:36:06.914Z,16.57
2023-04-09T11:39:09.624Z,16.64
2023-04-09T11:42:15.680Z,16.68
2023-04-09T11:45:22.340Z,16.65
2023-04-09T11:48:24.993Z,16.35
2023-04-09T11:51:28.739Z,15.79
2023-04-09T11:54:34.768Z,15.77
2023-04-09T11:57:46.131Z,15.54
2023-04-09T12:00:48.653Z,15.36
2023-04-09T12:03:55.634Z,15.22
2023-04-09T12:07:01.286Z,15.01
2023-04-09T12:10:11.662Z,15.28
2023-04-09T12:13:14.104Z,15.41
2023-04-09T12:16:21.916Z,15.14
2023-04-09T12:19:25.901Z,15.22
2023-04-09T12:22:28.563Z,15.54
2023-04-09T12:25:32.244Z,16.04
2023-04-09T12:28:34.993Z,17.57
2023-04-09T12:31:37.599Z,19.42
2023-04-09T12:34:41.175Z,19.28
2023-04-09T12:37:46.283Z,20.07
2023-04-09T12:40:48.999Z,19.70
2023-04-09T12:43:51.600Z,21.18
2023-04-09T12:46:55.296Z,23.25
2023-04-09T12:49:57.601Z,23.23
2023-04-09T12:53:00.417Z,24.15
2023-04-09T12:56:02.946Z,24.79
2023-04-09T12:59:06.073Z,24.11
2023-04-09T13:02:08.698Z,23.07
2023-04-09T13:05:11.600Z,21.84
2023-04-09T13:08:13.946Z,20.07
2023-04-09T13:11:16.659Z,20.34
2023-04-09T13:14:19.074Z,19.07
2023-04-09T13:17:22.156Z,20.18
2023-04-09T13:20:27.678Z,20.20
2023-04-09T13:23:30.381Z,20.95
2023-04-09T13:26:32.872Z,20.94
2023-04-09T13:29:38.904Z,18.89
2023-04-09T13:32:44.073Z,18.73
2023-04-09T13:35:46.847Z,19.46
2023-04-09T13:38:49.298Z,20.92
2023-04-09T13:41:52.096Z,20.50
2023-04-09T13:44:55.289Z,20.11
2023-04-09T13:47:58.496Z,20.70
2023-04-09T13:51:01.113Z,21.17
2023-04-09T13:54:05.760Z,20.64
2023-04-09T13:57:09.908Z,20.03
2023-04-09T14:00:13.909Z,19.17
2023-04-09T14:03:16.857Z,18.32
2023-04-09T14:06:19.394Z,17.75
2023-04-09T14:09:22.072Z,17.91
2023-04-09T14:12:24.868Z,18.19
2023-04-09T14:15:27.676Z,18.29
2023-04-09T14:18:30.056Z,17.96
2023-04-09T14:21:33.492Z,17.46
2023-04-09T14:24:40.030Z,17.07
2023-04-09T14:27:42.976Z,16.42
2023-04-09T14:30:45.456Z,16.61
2023-04-09T14:33:48.537Z,16.48
2023-04-09T14:36:51.125Z,16.38
2023-04-09T14:39:53.865Z,16.41
2023-04-09T14:42:56.241Z,15.86
2023-04-09T14:45:58.953Z,16.11
2023-04-09T14:49:01.382Z,15.56
2023-04-09T14:52:04.053Z,15.95
2023-04-09T14:55:12.152Z,15.67
2023-04-09T14:58:16.023Z,15.29
2023-04-09T15:01:18.544Z,15.59
2023-04-09T15:04:22.215Z,15.66
2023-04-09T15:07:25.217Z,15.80
2023-04-09T15:10:28.318Z,16.06
2023-04-09T15:13:30.953Z,15.98
2023-04-09T15:16:37.394Z,16.47
2023-04-09T15:19:39.896Z,17.13
2023-04-09T15:22:42.570Z,17.18
2023-04-09T15:25:44.981Z,16.79
2023-04-09T15:28:48.299Z,16.24
2023-04-09T15:31:53.276Z,16.07
2023-04-09T15:34:56.304Z,15.73
2023-04-09T15:37:58.698Z,15.40
2023-04-09T15:41:01.517Z,15.42
2023-04-09T15:44:04.116Z,15.16
2023-04-09T15:47:06.750Z,15.19
2023-04-09T15:50:09.434Z,15.05
2023-04-09T15:53:15.016Z,14.63
2023-04-09T15:56:19.924Z,14.32
2023-04-09T15:59:22.652Z,14.21
2023-04-09T16:02:26.229Z,14.11
2023-04-09T16:05:29.083Z,14.06
2023-04-09T16:08:31.410Z,13.98
2023-04-09T16:11:38.197Z,13.89
2023-04-09T16:14:40.996Z,13.60
2023-04-09T16:17:43.758Z,13.42
2023-04-09T16:20:46.556Z,13.29
2023-04-09T16:23:49.318Z,13.23
2023-04-09T16:26:51.896Z,13.11
2023-04-09T16:29:54.531Z,12.96
2023-04-09T16:32:56.940Z,12.83
2023-04-09T16:35:59.671Z,12.73
2023-04-09T16:39:02.108Z,12.61
2023-04-09T16:42:04.838Z,12.49
2023-04-09T16:45:09.410Z,12.33
2023-04-09T16:48:12.875Z,12.15
2023-04-09T16:51:15.606Z,11.95
2023-04-09T16:54:18.275Z,11.74
2023-04-09T16:57:20.771Z,11.51
2023-04-09T17:00:23.451Z,11.29
2023-04-09T17:03:25.918Z,11.05
2023-04-09T17:06:28.700Z,10.83
2023-04-09T17:09:31.751Z,10.57
2023-04-09T17:12:34.593Z,10.32
2023-04-09T17:15:37.811Z,10.13
2023-04-09T17:18:40.483Z,9.93
2023-04-09T17:21:42.769Z,9.75
2023-04-09T17:24:45.613Z,9.61
2023-04-09T17:27:48.297Z,9.45
2023-04-09T17:30:51.031Z,9.36
2023-04-09T17:33:53.664Z,9.21
2023-04-09T17:37:00.102Z,9.02
2023-04-09T17:40:03.408Z,8.87
2023-04-09T17:43:07.851Z,8.72
2023-04-09T17:46:12.877Z,8.61
2023-04-09T17:49:15.676Z,8.40
2023-04-09T17:52:18.077Z,8.28
2023-04-09T17:55:20.773Z,8.12
2023-04-09T17:58:24.441Z,8.01
2023-04-09T18:01:27.432Z,7.88
2023-04-09T18:04:30.623Z,7.79
2023-04-09T18:07:34.163Z,7.71
2023-04-09T18:10:39.290Z,7.66
2023-04-09T18:13:41.727Z,7.53
2023-04-09T18:16:44.389Z,7.51
2023-04-09T18:19:47.258Z,7.37
2023-04-09T18:22:50.353Z,7.27
2023-04-09T18:25:52.792Z,7.15
2023-04-09T18:28:57.829Z,7.03
2023-04-09T18:32:05.157Z,6.97
2023-04-09T18:35:08.252Z,6.88
2023-04-09T18:38:10.584Z,6.75
2023-04-09T18:41:16.715Z,6.65
2023-04-09T18:44:19.128Z,6.58
2023-04-09T18:47:21.798Z,6.48
2023-04-09T18:50:24.220Z,6.44
2023-04-09T18:53:29.358Z,6.27
2023-04-09T18:56:31.756Z,6.22
2023-04-09T18:59:35.218Z,6.11
2023-04-09T19:02:37.781Z,6.10
2023-04-09T19:05:40.503Z,6.04
2023-04-09T19:08:42.905Z,5.92
2023-04-09T19:11:45.665Z,5.90
2023-04-09T19:14:48.141Z,5.80
2023-04-09T19:17:50.903Z,5.70
2023-04-09T19:20:53.423Z,5.66
2023-04-09T19:23:56.611Z,5.57
2023-04-09T19:27:01.203Z,5.55
2023-04-09T19:30:04.426Z,5.49
2023-04-09T19:33:09.847Z,5.40
2023-04-09T19:36:15.518Z,5.39
2023-04-09T19:39:18.848Z,5.28
2023-04-09T19:42:21.627Z,5.28
2023-04-09T19:45:24.023Z,5.19
2023-04-09T19:48:26.729Z,5.11
2023-04-09T19:51:29.149Z,5.06
2023-04-09T19:54:33.319Z,5.00
2023-04-09T19:57:35.707Z,4.94
2023-04-09T20:00:38.374Z,4.92
2023-04-09T20:03:41.616Z,4.84
2023-04-09T20:06:44.951Z,4.80
2023-04-09T20:09:48.846Z,4.75
2023-04-09T20:12:56.197Z,4.68
2023-04-09T20:16:00.059Z,4.65
2023-04-09T20:19:02.602Z,4.64
2023-04-09T20:22:05.409Z,4.57
2023-04-09T20:25:08.231Z,4.53
2023-04-09T20:28:11.009Z,4.55
2023-04-09T20:31:13.495Z,4.53
2023-04-09T20:34:16.218Z,4.43
2023-04-09T20:37:20.105Z,4.39
2023-04-09T20:40:22.954Z,4.35
2023-04-09T20:43:28.206Z,4.36
2023-04-09T20:46:30.882Z,4.38
2023-04-09T20:49:33.481Z,4.32
2023-04-09T20:52:36.916Z,4.31
2023-04-09T20:55:39.427Z,4.27
2023-04-09T20:58:42.122Z,4.23
2023-04-09T21:01:48.459Z,4.18
2023-04-09T21:04:53.756Z,4.17
2023-04-09T21:07:56.190Z,4.09
2023-04-09T21:10:58.877Z,4.06
2023-04-09T21:14:04.138Z,4.05
2023-04-09T21:17:06.953Z,3.99
2023-04-09T21:20:09.862Z,3.93
2023-04-09T21:23:13.199Z,3.86
2023-04-09T21:26:15.601Z,3.83
2023-04-09T21:29:19.748Z,3.75
2023-04-09T21:32:22.194Z,3.73
2023-04-09T21:35:24.889Z,3.68
2023-04-09T21:38:27.205Z,3.67
2023-04-09T21:41:29.932Z,3.65
2023-04-09T21:44:32.377Z,3.61
2023-04-09T21:47:35.120Z,3.57
2023-04-09T21:50:37.617Z,3.53
2023-04-09T21:53:40.474Z,3.51
2023-04-09T21:56:42.899Z,3.47
2023-04-09T21:59:45.826Z,3.43
2023-04-09T22:02:53.093Z,3.41
2023-04-09T22:05:55.958Z,3.36
2023-04-09T22:08:58.629Z,3.40
2023-04-09T22:12:02.815Z,3.35
2023-04-09T22:15:06.066Z,3.37
2023-04-09T22:18:11.666Z,3.33
2023-04-09T22:21:17.809Z,3.25
2023-04-09T22:24:26.727Z,3.23
2023-04-09T22:27:29.358Z,3.19
2023-04-09T22:30:32.169Z,3.10
2023-04-09T22:33:34.500Z,3.02
2023-04-09T22:36:37.147Z,2.96
2023-04-09T22:39:39.522Z,2.91
2023-04-09T22:42:46.875Z,2.88
2023-04-09T22:45:54.580Z,2.86
2023-04-09T22:49:04.589Z,2.78
2023-04-09T22:52:08.447Z,2.79
2023-04-09T22:55:11.664Z,2.72
2023-04-09T22:58:16.874Z,2.70
2023-04-09T23:01:22.229Z,2.65
2023-04-09T23:04:25.370Z,2.60
2023-04-09T23:07:28.391Z,2.63
2023-04-09T23:10:30.866Z,2.59
2023-04-09T23:13:33.444Z,2.54
2023-04-09T23:16:36.007Z,2.49
2023-04-09T23:19:38.760Z,2.46
2023-04-09T23:22:41.990Z,2.44
2023-04-09T23:25:44.788Z,2.41
2023-04-09T23:28:50.072Z,2.34
2023-04-09T23:31:52.850Z,2.33
2023-04-09T23:34:57.280Z,2.29
2023-04-09T23:37:59.848Z,2.31
2023-04-09T23:41:02.319Z,2.28
2023-04-09T23:44:05.213Z,2.24
2023-04-09T23:47:11.236Z,2.25
2023-04-09T23:50:14.056Z,2.21
2023-04-09T23:53:16.931Z,2.16
2023-04-09T23:56:19.596Z,2.16
2023-04-09T23:59:24.412Z,2.13
